Williams, OR (97544)

10:23 PM PST on November 27, 2014 (GMT -0800)
Bonlinda Lane | Change Station
CLOSE
Current Station
Personal Weather Station
Location: Williams, OR
Elevation: 1542 ft
Nearby Weather Stations

Elev 1542 ft 42.20 °N, 123.30 °W | Updated 14 minutes ago

Mostly Cloudy
Mostly Cloudy
44.5 °F
Feels Like 44 °F
N
0.0
Wind Variable Wind from SSE
Gusts 0.0 mph

Today
High -- | Low -- °F
--% Chance of Precip.
Yesterday
High -- | Low -- °F
Precip. -- in
7:17 AM 4:43 PM
Waxing Crescent, 37% visible
Pressure 29.96 in
Visibility 10.0 miles
Clouds Few 10000 ft
Windchill 44 °F
Dew Point 42 °F
Humidity 92%
Rainfall 0.00 in
Snow Depth Not available.
UV 0 out of 12
Pollen .30 out of 12
Air Quality Not available.
Flu Activity Not available.
METAR KMFR 280553Z AUTO 01003KT 10SM FEW100 09/08 A2995 RMK AO2 SLP143 T00940078 10144 20094 56014 $

More Conditions Fewer Conditions

Pressure 29.96 in
Visibility 10.0 miles
Clouds Few 10000 ft
Windchill 44 °F
Dew Point 42 °F
Humidity 92%
Rainfall 0.00 in
Snow Depth Not available.
UV 0 out of 12
Pollen .30 out of 12
Air Quality Not available.
Flu Activity Not available.
METAR KMFR 280553Z AUTO 01003KT 10SM FEW100 09/08 A2995 RMK AO2 SLP143 T00940078 10144 20094 56014 $

More Conditions Fewer Conditions

10-Day Weather Forecast

Almanac

Astronomy

Nov. 27, 2014 Rise Set
Actual Time
Civil Twilight
Nautical Twilight
Astronomical Twilight
Moon
Length of Visible Light
Length of Day
Tomorrow will be .
, % of the Moon is Illuminated

Today's Extremes

State Highs State Lows

Community

WunderPhotos

Upload Photos

1,774,199 photos uploaded!

WunderBlogs® & News

Nearby

Air Quality

  Air Quality AQ Index Pollutant
Not available.

Snow Depth

Station Depth Elevation

Earthquake Activity

City Distance Mag. Time & Date
Minimum magnitude displayed is 2.5.

Coastal Water Temperatures

Place Temperature

Nearby Weather Stations